createdAt,value
2023-10-18T00:00:25.738Z,2.28
2023-10-18T00:02:55.047Z,2.45
2023-10-18T00:05:23.391Z,2.35
2023-10-18T00:07:53.135Z,2.30
2023-10-18T00:10:21.776Z,2.45
2023-10-18T00:12:53.716Z,2.80
2023-10-18T00:15:21.935Z,2.40
2023-10-18T00:17:50.260Z,2.40
2023-10-18T00:20:22.318Z,2.67
2023-10-18T00:22:50.396Z,2.60
2023-10-18T00:25:18.980Z,2.75
2023-10-18T00:27:47.506Z,2.53
2023-10-18T00:30:19.489Z,2.50
2023-10-18T00:32:48.017Z,2.50
2023-10-18T00:35:20.253Z,2.45
2023-10-18T00:37:49.026Z,2.13
2023-10-18T00:40:34.144Z,2.70
2023-10-18T00:43:12.532Z,2.28
2023-10-18T00:45:45.557Z,2.50
2023-10-18T00:48:14.767Z,2.50
2023-10-18T00:50:45.117Z,2.58
2023-10-18T00:53:13.099Z,2.72
2023-10-18T00:55:41.028Z,2.75
2023-10-18T00:58:10.201Z,2.50
2023-10-18T01:00:41.483Z,3.17
2023-10-18T01:03:16.455Z,2.28
2023-10-18T01:06:01.049Z,2.63
2023-10-18T01:08:30.434Z,2.78
2023-10-18T01:11:05.184Z,2.90
2023-10-18T01:13:35.825Z,2.70
2023-10-18T01:16:06.462Z,2.83
2023-10-18T01:18:36.195Z,2.40
2023-10-18T01:21:15.917Z,2.63
2023-10-18T01:23:50.348Z,2.50
2023-10-18T01:26:19.799Z,2.60
2023-10-18T01:28:47.817Z,2.55
2023-10-18T01:31:15.855Z,2.90
2023-10-18T01:33:44.982Z,2.60
2023-10-18T01:36:15.854Z,2.88
2023-10-18T01:38:44.778Z,2.83
2023-10-18T01:41:17.671Z,2.70
2023-10-18T01:43:49.043Z,2.78
2023-10-18T01:46:17.566Z,2.55
2023-10-18T01:48:52.160Z,2.45
2023-10-18T01:51:20.535Z,2.85
2023-10-18T01:53:51.529Z,2.53
2023-10-18T01:56:21.274Z,2.63
2023-10-18T01:58:50.533Z,2.38
2023-10-18T02:01:19.061Z,2.58
2023-10-18T02:03:47.232Z,3.15
2023-10-18T02:06:16.236Z,2.42
2023-10-18T02:08:44.191Z,2.80
2023-10-18T02:11:12.970Z,2.33
2023-10-18T02:13:41.128Z,2.83
2023-10-18T02:16:15.794Z,2.75
2023-10-18T02:18:45.851Z,2.75
2023-10-18T02:21:15.092Z,2.78
2023-10-18T02:23:43.755Z,2.50
2023-10-18T02:26:31.633Z,2.60
2023-10-18T02:29:00.948Z,3.10
2023-10-18T02:31:34.442Z,2.70
2023-10-18T02:34:14.999Z,2.72
2023-10-18T02:36:50.932Z,2.50
2023-10-18T02:39:24.431Z,2.80
2023-10-18T02:41:53.003Z,2.83
2023-10-18T02:44:24.036Z,2.80
2023-10-18T02:46:55.699Z,3.05
2023-10-18T02:49:28.517Z,2.75
2023-10-18T02:51:58.361Z,2.80
2023-10-18T02:54:26.744Z,2.40
2023-10-18T02:56:55.131Z,2.38
2023-10-18T02:59:24.517Z,2.88
2023-10-18T03:01:56.210Z,2.80
2023-10-18T03:04:28.190Z,2.58
2023-10-18T03:06:56.690Z,2.75
2023-10-18T03:09:39.549Z,2.85
2023-10-18T03:12:14.517Z,2.90
2023-10-18T03:14:55.024Z,2.92
2023-10-18T03:17:25.684Z,3.08
2023-10-18T03:19:55.499Z,2.90
2023-10-18T03:22:24.283Z,2.78
2023-10-18T03:24:55.132Z,2.88
2023-10-18T03:27:23.107Z,2.47
2023-10-18T03:29:50.995Z,2.90
2023-10-18T03:32:21.263Z,2.78
2023-10-18T03:34:53.643Z,2.50
2023-10-18T03:37:22.735Z,3.00
2023-10-18T03:39:53.531Z,2.88
2023-10-18T03:42:34.506Z,3.30
2023-10-18T03:45:02.598Z,2.83
2023-10-18T03:47:37.346Z,2.80
2023-10-18T03:50:14.500Z,3.00
2023-10-18T03:52:42.992Z,2.90
2023-10-18T03:55:18.107Z,2.95
2023-10-18T03:57:47.037Z,2.70
2023-10-18T04:00:38.236Z,2.42
2023-10-18T04:03:13.154Z,2.65
2023-10-18T04:05:44.112Z,3.15
2023-10-18T04:08:15.185Z,2.47
2023-10-18T04:10:43.409Z,3.20
2023-10-18T04:13:13.925Z,2.42
2023-10-18T04:15:43.761Z,2.78
2023-10-18T04:18:14.531Z,2.88
2023-10-18T04:20:45.289Z,2.72
2023-10-18T04:23:19.631Z,2.90
2023-10-18T04:25:58.640Z,2.78
2023-10-18T04:28:26.801Z,3.13
2023-10-18T04:31:00.635Z,2.78
2023-10-18T04:33:29.590Z,2.83
2023-10-18T04:36:00.213Z,2.60
2023-10-18T04:38:32.362Z,2.95
2023-10-18T04:41:08.673Z,2.92
2023-10-18T04:43:37.140Z,3.00
2023-10-18T04:46:09.010Z,3.15
2023-10-18T04:48:54.433Z,3.05
2023-10-18T04:51:29.689Z,2.85
2023-10-18T04:53:58.673Z,3.17
2023-10-18T04:56:33.746Z,2.75
2023-10-18T04:59:00.858Z,2.55
2023-10-18T05:01:35.615Z,3.00
2023-10-18T05:04:19.803Z,2.65
2023-10-18T05:06:56.047Z,2.67
2023-10-18T05:09:32.688Z,2.78
2023-10-18T05:12:04.881Z,3.20
2023-10-18T05:14:52.417Z,3.08
2023-10-18T05:17:24.541Z,2.80
2023-10-18T05:19:52.989Z,3.03
2023-10-18T05:22:24.742Z,2.40
2023-10-18T05:24:58.400Z,2.88
2023-10-18T05:27:27.392Z,2.97
2023-10-18T05:29:56.324Z,2.88
2023-10-18T05:32:50.231Z,2.80
2023-10-18T05:35:22.599Z,3.10
2023-10-18T05:37:59.237Z,2.95
2023-10-18T05:40:45.527Z,3.08
2023-10-18T05:43:23.772Z,2.85
2023-10-18T05:45:57.043Z,2.78
2023-10-18T05:48:25.160Z,2.70
2023-10-18T05:51:02.409Z,2.50
2023-10-18T05:53:32.589Z,3.13
2023-10-18T05:56:00.544Z,2.70
2023-10-18T05:58:28.675Z,2.90
2023-10-18T06:00:58.968Z,3.25
2023-10-18T06:03:27.865Z,2.20
2023-10-18T06:05:57.190Z,2.70
2023-10-18T06:08:25.286Z,2.85
2023-10-18T06:11:01.866Z,2.90
2023-10-18T06:13:30.095Z,3.03
2023-10-18T06:16:00.043Z,2.75
2023-10-18T06:18:32.231Z,2.70
2023-10-18T06:21:01.088Z,2.55
2023-10-18T06:23:40.931Z,2.80
2023-10-18T06:26:27.567Z,2.65
2023-10-18T06:29:01.610Z,2.60
2023-10-18T06:31:30.597Z,3.08
2023-10-18T06:34:00.442Z,2.95
2023-10-18T06:36:33.249Z,2.85
2023-10-18T06:39:01.301Z,2.72
2023-10-18T06:41:31.615Z,2.85
2023-10-18T06:44:00.234Z,2.60
2023-10-18T06:46:29.790Z,2.88
2023-10-18T06:49:10.766Z,2.85
2023-10-18T06:51:44.199Z,2.90
2023-10-18T06:54:16.008Z,2.88
2023-10-18T06:56:47.383Z,2.92
2023-10-18T06:59:16.787Z,3.30
2023-10-18T07:01:54.525Z,2.60
2023-10-18T07:04:28.664Z,2.85
2023-10-18T07:06:56.642Z,3.25
2023-10-18T07:09:27.958Z,2.83
2023-10-18T07:12:04.432Z,2.83
2023-10-18T07:14:32.447Z,2.88
2023-10-18T07:17:02.256Z,2.83
2023-10-18T07:19:35.069Z,3.22
2023-10-18T07:22:07.490Z,2.63
2023-10-18T07:24:38.249Z,2.60
2023-10-18T07:27:10.521Z,2.97
2023-10-18T07:29:38.630Z,2.92
2023-10-18T07:32:14.080Z,3.00
2023-10-18T07:34:43.740Z,3.13
2023-10-18T07:37:20.480Z,2.70
2023-10-18T07:39:50.364Z,2.85
2023-10-18T07:42:21.839Z,3.08
2023-10-18T07:44:54.159Z,3.33
2023-10-18T07:47:26.572Z,3.35
2023-10-18T07:49:56.358Z,3.28
2023-10-18T07:52:24.391Z,3.28
2023-10-18T07:54:52.288Z,3.42
2023-10-18T07:57:34.627Z,3.75
2023-10-18T08:00:16.987Z,3.55
2023-10-18T08:02:45.199Z,4.25
2023-10-18T08:05:13.338Z,5.35
2023-10-18T08:07:50.078Z,4.20
2023-10-18T08:10:20.869Z,5.15
2023-10-18T08:13:04.857Z,5.68
2023-10-18T08:15:36.552Z,4.88
2023-10-18T08:18:16.076Z,5.25
2023-10-18T08:20:57.315Z,4.03
2023-10-18T08:23:37.073Z,4.13
2023-10-18T08:26:07.736Z,5.00
2023-10-18T08:28:42.581Z,4.82
2023-10-18T08:31:17.764Z,4.63
2023-10-18T08:33:46.780Z,4.18
2023-10-18T08:36:15.968Z,3.45
2023-10-18T08:38:45.783Z,4.22
2023-10-18T08:41:16.218Z,4.38
2023-10-18T08:43:51.718Z,3.75
2023-10-18T08:46:25.442Z,4.28
2023-10-18T08:48:53.813Z,3.60
2023-10-18T08:51:22.643Z,3.33
2023-10-18T08:53:50.702Z,3.40
2023-10-18T08:56:26.193Z,2.95
2023-10-18T08:58:57.274Z,3.10
2023-10-18T09:01:25.705Z,3.22
2023-10-18T09:03:52.732Z,4.63
2023-10-18T09:06:32.644Z,4.05
2023-10-18T09:09:05.307Z,4.63
2023-10-18T09:11:34.210Z,3.17
2023-10-18T09:14:09.041Z,4.18
2023-10-18T09:16:38.875Z,3.50
2023-10-18T09:19:08.370Z,4.38
2023-10-18T09:21:43.868Z,3.28
2023-10-18T09:24:12.773Z,3.97
2023-10-18T09:26:43.390Z,4.28
2023-10-18T09:29:12.657Z,4.53
2023-10-18T09:31:53.303Z,3.47
2023-10-18T09:34:21.444Z,3.78
2023-10-18T09:36:56.290Z,2.72
2023-10-18T09:39:25.926Z,2.97
2023-10-18T09:41:54.720Z,3.42
2023-10-18T09:44:24.024Z,2.78
2023-10-18T09:46:55.927Z,2.83
2023-10-18T09:49:25.302Z,2.20
2023-10-18T09:51:56.069Z,2.83
2023-10-18T09:54:24.532Z,2.30
2023-10-18T09:56:54.728Z,2.35
2023-10-18T09:59:32.414Z,2.70
2023-10-18T10:02:08.764Z,2.75
2023-10-18T10:04:37.187Z,2.65
2023-10-18T10:07:23.252Z,2.75
2023-10-18T10:09:51.508Z,2.83
2023-10-18T10:12:19.731Z,2.47
2023-10-18T10:14:49.595Z,3.05
2023-10-18T10:17:19.317Z,2.90
2023-10-18T10:19:48.927Z,2.65
2023-10-18T10:22:18.718Z,2.70
2023-10-18T10:24:59.760Z,2.30
2023-10-18T10:27:50.935Z,2.50
2023-10-18T10:30:26.991Z,2.80
2023-10-18T10:32:55.499Z,3.13
2023-10-18T10:35:26.379Z,2.17
2023-10-18T10:37:54.600Z,2.25
2023-10-18T10:40:37.129Z,2.22
2023-10-18T10:43:06.037Z,2.55
2023-10-18T10:45:39.240Z,2.50
2023-10-18T10:48:31.819Z,2.90
2023-10-18T10:51:09.309Z,3.10
2023-10-18T10:53:44.745Z,3.90
2023-10-18T10:56:19.330Z,2.67
2023-10-18T10:58:55.598Z,2.92
2023-10-18T11:01:40.517Z,3.30
2023-10-18T11:04:12.267Z,3.50
2023-10-18T11:06:44.406Z,3.75
2023-10-18T11:09:16.749Z,4.25
2023-10-18T11:11:45.686Z,3.90
2023-10-18T11:14:18.802Z,4.28
2023-10-18T11:16:50.260Z,3.65
2023-10-18T11:19:19.887Z,5.10
2023-10-18T11:21:53.054Z,5.75
2023-10-18T11:24:22.340Z,5.38
2023-10-18T11:26:52.669Z,6.07
2023-10-18T11:29:27.332Z,6.03
2023-10-18T11:31:57.592Z,6.85
2023-10-18T11:34:26.704Z,6.65
2023-10-18T11:36:56.185Z,5.47
2023-10-18T11:39:26.428Z,6.30
2023-10-18T11:41:57.856Z,5.57
2023-10-18T11:44:32.713Z,6.10
2023-10-18T11:47:09.768Z,6.13
2023-10-18T11:49:38.294Z,5.28
2023-10-18T11:52:06.335Z,5.32
2023-10-18T11:54:34.818Z,5.38
2023-10-18T11:57:03.113Z,5.70
2023-10-18T11:59:31.221Z,5.00
2023-10-18T12:02:00.160Z,5.38
2023-10-18T12:04:29.810Z,4.28
2023-10-18T12:06:59.115Z,4.85
2023-10-18T12:09:32.540Z,4.97
2023-10-18T12:12:06.267Z,5.95
2023-10-18T12:14:35.796Z,6.20
2023-10-18T12:17:04.224Z,5.72
2023-10-18T12:19:38.100Z,6.53
2023-10-18T12:22:06.059Z,7.22
2023-10-18T12:24:34.347Z,5.22
2023-10-18T12:27:16.335Z,5.80
2023-10-18T12:29:45.788Z,6.05
2023-10-18T12:32:24.960Z,6.40
2023-10-18T12:34:57.757Z,6.88
2023-10-18T12:37:26.387Z,5.95
2023-10-18T12:39:59.320Z,4.72
2023-10-18T12:42:34.106Z,4.35
2023-10-18T12:45:10.218Z,4.70
2023-10-18T12:47:38.760Z,4.60
2023-10-18T12:50:08.868Z,4.30
2023-10-18T12:52:43.478Z,4.20
2023-10-18T12:55:25.405Z,3.50
2023-10-18T12:57:53.317Z,3.80
2023-10-18T13:00:20.293Z,3.33
2023-10-18T13:03:13.406Z,3.95
2023-10-18T13:05:42.077Z,3.78
2023-10-18T13:08:18.035Z,3.67
2023-10-18T13:10:49.660Z,3.28
2023-10-18T13:13:18.234Z,3.47
2023-10-18T13:15:48.086Z,3.63
2023-10-18T13:18:16.132Z,3.28
2023-10-18T13:20:46.317Z,3.05
2023-10-18T13:23:20.102Z,3.05
2023-10-18T13:25:54.053Z,3.63
2023-10-18T13:28:34.496Z,3.88
2023-10-18T13:31:05.679Z,3.35
2023-10-18T13:33:35.061Z,3.10
2023-10-18T13:36:05.300Z,3.25
2023-10-18T13:38:33.698Z,3.30
2023-10-18T13:41:01.809Z,3.20
2023-10-18T13:43:29.762Z,3.10
2023-10-18T13:45:58.033Z,3.17
2023-10-18T13:48:26.505Z,3.13
2023-10-18T13:50:59.220Z,3.08
2023-10-18T13:53:28.550Z,3.30
2023-10-18T13:55:59.991Z,2.88
2023-10-18T13:58:30.608Z,2.70
2023-10-18T14:00:59.260Z,2.83
2023-10-18T14:03:28.599Z,2.67
2023-10-18T14:05:56.883Z,3.00
2023-10-18T14:08:25.680Z,3.38
2023-10-18T14:10:57.134Z,2.88
2023-10-18T14:13:25.420Z,2.95
2023-10-18T14:15:53.601Z,3.22
2023-10-18T14:18:26.503Z,2.78
2023-10-18T14:20:54.621Z,2.55
2023-10-18T14:23:28.505Z,3.08
2023-10-18T14:25:57.912Z,2.42
2023-10-18T14:28:25.812Z,2.90
2023-10-18T14:30:56.827Z,4.25
2023-10-18T14:33:33.831Z,3.80
2023-10-18T14:36:09.124Z,3.40
2023-10-18T14:38:37.027Z,3.20
2023-10-18T14:41:20.975Z,3.58
2023-10-18T14:43:57.175Z,2.60
2023-10-18T14:46:25.444Z,2.88
2023-10-18T14:48:54.462Z,3.28
2023-10-18T14:51:23.359Z,2.78
2023-10-18T14:53:52.017Z,2.78
2023-10-18T14:56:23.405Z,2.55
2023-10-18T14:58:51.951Z,2.45
2023-10-18T15:01:20.055Z,2.67
2023-10-18T15:03:48.542Z,2.97
2023-10-18T15:06:18.148Z,2.50
2023-10-18T15:08:46.287Z,2.30
2023-10-18T15:11:15.339Z,2.88
2023-10-18T15:13:47.913Z,2.42
2023-10-18T15:16:15.914Z,2.00
2023-10-18T15:18:43.976Z,2.30
2023-10-18T15:21:16.144Z,2.30
2023-10-18T15:23:45.726Z,2.28
2023-10-18T15:26:17.691Z,2.42
2023-10-18T15:28:51.397Z,2.28
2023-10-18T15:31:19.647Z,2.50
2023-10-18T15:33:47.545Z,2.35
2023-10-18T15:36:16.411Z,2.35
2023-10-18T15:38:44.481Z,2.22
2023-10-18T15:41:12.577Z,2.85
2023-10-18T15:43:41.581Z,2.60
2023-10-18T15:46:10.915Z,2.78
2023-10-18T15:48:38.790Z,2.40
2023-10-18T15:51:07.730Z,2.45
2023-10-18T15:53:45.250Z,1.80
2023-10-18T15:56:22.343Z,2.00
2023-10-18T15:58:50.326Z,2.28
2023-10-18T16:01:19.655Z,2.05
2023-10-18T16:03:48.762Z,2.10
2023-10-18T16:06:16.892Z,2.08
2023-10-18T16:08:45.340Z,2.00
2023-10-18T16:11:13.723Z,1.77
2023-10-18T16:13:41.795Z,2.38
2023-10-18T16:16:10.416Z,2.35
2023-10-18T16:18:40.139Z,2.13
2023-10-18T16:21:08.849Z,2.00
2023-10-18T16:23:40.993Z,2.33
2023-10-18T16:26:10.687Z,1.90
2023-10-18T16:28:38.718Z,1.83
2023-10-18T16:31:06.794Z,1.85
2023-10-18T16:33:34.785Z,1.60
2023-10-18T16:36:04.015Z,2.03
2023-10-18T16:38:33.023Z,2.20
2023-10-18T16:41:01.489Z,2.20
2023-10-18T16:43:29.386Z,2.50
2023-10-18T16:45:58.317Z,1.83
2023-10-18T16:48:27.214Z,2.13
2023-10-18T16:50:55.242Z,1.92
2023-10-18T16:53:24.673Z,1.98
2023-10-18T16:55:56.705Z,1.48
2023-10-18T16:58:26.694Z,2.13
2023-10-18T17:00:58.001Z,3.85
2023-10-18T17:03:26.402Z,77.30
2023-10-18T17:05:56.140Z,42.80
2023-10-18T17:08:27.377Z,40.63
2023-10-18T17:10:55.873Z,36.75
2023-10-18T17:13:24.412Z,37.47
2023-10-18T17:15:52.485Z,36.58
2023-10-18T17:18:21.824Z,37.00
2023-10-18T17:21:02.452Z,33.45
2023-10-18T17:23:39.218Z,33.00
2023-10-18T17:26:09.975Z,33.40
2023-10-18T17:28:38.460Z,31.25
2023-10-18T17:31:06.523Z,31.27
2023-10-18T17:33:34.526Z,31.85
2023-10-18T17:36:02.636Z,28.27
2023-10-18T17:38:31.045Z,29.17
2023-10-18T17:41:00.364Z,27.13
2023-10-18T17:43:29.082Z,27.42
2023-10-18T17:45:56.983Z,27.05
2023-10-18T17:48:25.558Z,26.48
2023-10-18T17:50:53.546Z,26.10
2023-10-18T17:53:22.183Z,25.70
2023-10-18T17:55:50.147Z,23.45
2023-10-18T17:58:20.034Z,23.92
2023-10-18T18:00:53.641Z,24.10
2023-10-18T18:03:23.562Z,22.70
2023-10-18T18:05:52.009Z,22.98
2023-10-18T18:08:26.212Z,22.75
2023-10-18T18:10:54.761Z,21.85
2023-10-18T18:13:24.677Z,20.63
2023-10-18T18:15:52.772Z,20.88
2023-10-18T18:18:21.187Z,20.60
2023-10-18T18:20:51.469Z,19.40
2023-10-18T18:23:20.540Z,19.98
2023-10-18T18:25:48.585Z,19.92
2023-10-18T18:28:17.172Z,19.88
2023-10-18T18:30:46.621Z,19.73
2023-10-18T18:33:14.663Z,18.88
2023-10-18T18:35:43.874Z,16.05
2023-10-18T18:38:12.722Z,12.45
2023-10-18T18:40:40.629Z,12.68
2023-10-18T18:43:08.602Z,12.45
2023-10-18T18:45:37.201Z,12.48
2023-10-18T18:48:07.320Z,11.80
2023-10-18T18:50:36.254Z,11.68
2023-10-18T18:53:04.360Z,12.88
2023-10-18T18:55:32.341Z,11.18
2023-10-18T18:58:00.263Z,10.73
2023-10-18T19:00:28.176Z,9.95
2023-10-18T19:02:57.097Z,10.10
2023-10-18T19:05:26.674Z,9.65
2023-10-18T19:07:54.614Z,9.10
2023-10-18T19:10:22.524Z,8.65
2023-10-18T19:12:52.067Z,8.82
2023-10-18T19:15:22.680Z,9.30
2023-10-18T19:17:51.709Z,8.27
2023-10-18T19:20:20.275Z,7.88
2023-10-18T19:22:50.096Z,8.27
2023-10-18T19:25:18.939Z,7.75
2023-10-18T19:27:47.511Z,7.05
2023-10-18T19:30:17.155Z,7.50
2023-10-18T19:32:45.371Z,6.75
2023-10-18T19:35:13.674Z,6.35
2023-10-18T19:37:43.185Z,6.50
2023-10-18T19:40:13.475Z,6.55
2023-10-18T19:42:41.838Z,6.28
2023-10-18T19:45:10.655Z,6.00
2023-10-18T19:47:38.870Z,5.90
2023-10-18T19:50:07.802Z,6.15
2023-10-18T19:52:35.976Z,5.65
2023-10-18T19:55:05.340Z,6.20
2023-10-18T19:57:35.248Z,5.50
2023-10-18T20:00:07.985Z,5.90
2023-10-18T20:02:41.584Z,6.00
2023-10-18T20:05:10.373Z,5.50
2023-10-18T20:07:38.333Z,5.50
2023-10-18T20:10:06.957Z,5.65
2023-10-18T20:12:36.163Z,5.38
2023-10-18T20:15:04.362Z,5.53
2023-10-18T20:17:32.420Z,5.28
2023-10-18T20:20:00.315Z,4.95
2023-10-18T20:22:28.642Z,4.40
2023-10-18T20:24:57.226Z,4.30
2023-10-18T20:27:25.160Z,4.53
2023-10-18T20:29:55.310Z,4.72
2023-10-18T20:32:23.286Z,4.70
2023-10-18T20:34:51.705Z,4.70
2023-10-18T20:37:19.585Z,4.70
2023-10-18T20:39:51.954Z,4.35
2023-10-18T20:42:21.782Z,4.43
2023-10-18T20:44:50.131Z,4.63
2023-10-18T20:47:28.367Z,4.60
2023-10-18T20:49:56.429Z,4.32
2023-10-18T20:52:27.690Z,3.97
2023-10-18T20:54:55.704Z,4.40
2023-10-18T20:57:26.000Z,4.28
2023-10-18T20:59:54.136Z,3.95
2023-10-18T21:02:24.305Z,4.82
2023-10-18T21:04:52.572Z,4.15
2023-10-18T21:07:25.600Z,4.22
2023-10-18T21:09:53.798Z,3.78
2023-10-18T21:12:22.099Z,4.45
2023-10-18T21:14:50.553Z,3.60
2023-10-18T21:17:21.090Z,3.83
2023-10-18T21:19:50.393Z,4.07
2023-10-18T21:22:21.250Z,3.45
2023-10-18T21:24:50.069Z,3.58
2023-10-18T21:27:18.368Z,3.47
2023-10-18T21:29:46.363Z,3.88
2023-10-18T21:32:14.320Z,3.53
2023-10-18T21:34:43.997Z,3.85
2023-10-18T21:37:13.401Z,4.20
2023-10-18T21:39:41.699Z,3.80
2023-10-18T21:42:09.627Z,3.40
2023-10-18T21:44:38.554Z,3.80
2023-10-18T21:47:06.520Z,3.33
2023-10-18T21:49:34.467Z,3.35
2023-10-18T21:52:02.712Z,3.58
2023-10-18T21:54:32.514Z,3.10
2023-10-18T21:57:02.307Z,3.40
2023-10-18T21:59:31.528Z,3.63
2023-10-18T22:02:04.780Z,3.15
2023-10-18T22:04:33.298Z,3.38
2023-10-18T22:07:05.587Z,3.22
2023-10-18T22:09:42.395Z,3.15
2023-10-18T22:12:11.328Z,3.30
2023-10-18T22:14:40.985Z,3.47
2023-10-18T22:17:15.742Z,3.10
2023-10-18T22:19:51.195Z,2.65
2023-10-18T22:22:24.678Z,2.50
2023-10-18T22:24:53.969Z,2.90
2023-10-18T22:27:24.029Z,2.67
2023-10-18T22:29:54.916Z,2.95
2023-10-18T22:32:26.144Z,3.72
2023-10-18T22:34:54.572Z,3.08
2023-10-18T22:37:23.274Z,2.83
2023-10-18T22:39:53.309Z,2.90
2023-10-18T22:42:24.911Z,2.72
2023-10-18T22:45:06.869Z,2.90
2023-10-18T22:47:39.083Z,2.90
2023-10-18T22:50:20.112Z,2.75
2023-10-18T22:52:52.732Z,2.63
2023-10-18T22:55:27.016Z,2.80
2023-10-18T22:57:56.965Z,2.70
2023-10-18T23:00:32.920Z,2.75
2023-10-18T23:03:02.807Z,2.80
2023-10-18T23:05:30.982Z,2.10
2023-10-18T23:07:59.304Z,2.83
2023-10-18T23:10:46.169Z,2.30
2023-10-18T23:13:26.907Z,2.70
2023-10-18T23:15:57.775Z,2.30
2023-10-18T23:18:30.644Z,2.42
2023-10-18T23:21:24.742Z,2.53
2023-10-18T23:24:12.806Z,2.53
2023-10-18T23:26:58.334Z,2.30
2023-10-18T23:29:34.692Z,2.40
2023-10-18T23:32:12.729Z,2.25
2023-10-18T23:34:50.897Z,2.30
2023-10-18T23:37:28.988Z,2.53
2023-10-18T23:39:56.947Z,2.53
2023-10-18T23:42:29.093Z,2.60
2023-10-18T23:45:13.183Z,2.40
2023-10-18T23:48:07.076Z,2.78
2023-10-18T23:50:45.250Z,2.40
2023-10-18T23:53:26.131Z,2.47
2023-10-18T23:55:53.270Z,2.42
2023-10-18T23:58:22.076Z,2.70
